createdAt,value
2018-12-06T00:00:13.641Z,91.16
2018-12-06T00:01:13.343Z,91.63
2018-12-06T00:02:13.272Z,91.37
2018-12-06T00:03:13.283Z,91.35
2018-12-06T00:04:13.362Z,91.41
2018-12-06T00:05:13.243Z,91.66
2018-12-06T00:06:13.341Z,91.67
2018-12-06T00:07:13.242Z,91.78
2018-12-06T00:08:14.139Z,92.02
2018-12-06T00:09:13.394Z,91.56
2018-12-06T00:10:13.268Z,91.64
2018-12-06T00:11:13.282Z,92.12
2018-12-06T00:12:13.484Z,92.18
2018-12-06T00:13:13.311Z,92.43
2018-12-06T00:14:13.306Z,92.04
2018-12-06T00:15:13.228Z,91.83
2018-12-06T00:16:13.651Z,91.89
2018-12-06T00:17:13.348Z,92.2
2018-12-06T00:18:13.495Z,92.79
2018-12-06T00:19:13.371Z,92.21
2018-12-06T00:20:13.429Z,92.63
2018-12-06T00:21:13.464Z,92.56
2018-12-06T00:22:13.649Z,92.28
2018-12-06T00:23:13.302Z,92.29
2018-12-06T00:24:13.478Z,92.67
2018-12-06T00:25:13.277Z,92.62
2018-12-06T00:26:13.414Z,92.39
2018-12-06T00:27:13.423Z,92.3
2018-12-06T00:28:13.256Z,92.8
2018-12-06T00:29:13.376Z,92.44
2018-12-06T00:30:13.294Z,92.3
2018-12-06T00:31:13.384Z,92.2
2018-12-06T00:32:13.370Z,92.2
2018-12-06T00:33:13.333Z,92.57
2018-12-06T00:34:13.400Z,92.49
2018-12-06T00:35:13.234Z,92.49
2018-12-06T00:36:13.482Z,92.76
2018-12-06T00:37:13.499Z,92.5
2018-12-06T00:38:13.249Z,92.75
2018-12-06T00:39:13.243Z,92.79
2018-12-06T00:40:13.209Z,92.87
2018-12-06T00:41:13.215Z,92.66
2018-12-06T00:42:13.206Z,92.61
2018-12-06T00:43:13.198Z,92.67
2018-12-06T00:44:13.262Z,92.88
2018-12-06T00:45:13.286Z,93
2018-12-06T00:46:13.207Z,92.9
2018-12-06T00:47:13.213Z,92.92
2018-12-06T00:48:13.220Z,93.18
2018-12-06T00:49:13.501Z,93.07
2018-12-06T00:50:13.254Z,93.2
2018-12-06T00:51:13.247Z,93.34
2018-12-06T00:52:13.478Z,93.39
2018-12-06T00:53:13.235Z,93.5
2018-12-06T00:54:13.244Z,93.55
2018-12-06T00:55:13.343Z,93.55
2018-12-06T00:56:13.225Z,93.43
2018-12-06T00:57:13.722Z,93.41
2018-12-06T00:58:13.195Z,93.25
2018-12-06T00:59:13.215Z,93.13
2018-12-06T01:00:13.621Z,93.08
2018-12-06T01:01:13.664Z,92.94
2018-12-06T01:02:13.394Z,92.83
2018-12-06T01:03:13.981Z,93.01
2018-12-06T01:04:13.194Z,93.29
2018-12-06T01:05:13.492Z,92.92
2018-12-06T01:06:13.243Z,92.75
2018-12-06T01:07:13.292Z,92.67
2018-12-06T01:08:13.482Z,93.04
2018-12-06T01:09:13.229Z,92.85
2018-12-06T01:10:13.272Z,92.69
2018-12-06T01:11:13.385Z,93.06
2018-12-06T01:12:13.297Z,92.91
2018-12-06T01:13:13.372Z,92.86
2018-12-06T01:14:13.504Z,92.92
2018-12-06T01:15:13.576Z,93
2018-12-06T01:16:13.387Z,92.77
2018-12-06T01:17:13.217Z,92.7
2018-12-06T01:18:13.392Z,92.64
2018-12-06T01:19:13.231Z,92.68
2018-12-06T01:20:13.248Z,92.48
2018-12-06T01:21:13.728Z,92.27
2018-12-06T01:22:13.173Z,92.82
2018-12-06T01:23:13.343Z,92.52
2018-12-06T01:24:13.245Z,92.25
2018-12-06T01:25:13.283Z,92.57
2018-12-06T01:26:13.320Z,92.61
2018-12-06T01:27:13.322Z,92.7
2018-12-06T01:28:13.238Z,92.51
2018-12-06T01:29:13.239Z,92.78
2018-12-06T01:30:13.435Z,92.8
2018-12-06T01:31:13.544Z,92.56
2018-12-06T01:32:13.172Z,92.96
2018-12-06T01:33:13.149Z,92.88
2018-12-06T01:34:13.131Z,92.77
2018-12-06T01:35:13.167Z,92.69
2018-12-06T01:36:13.319Z,92.97
2018-12-06T01:37:13.197Z,92.6
2018-12-06T01:38:13.153Z,92.66
2018-12-06T01:39:13.389Z,92.96
2018-12-06T01:40:13.143Z,92.63
2018-12-06T01:41:13.424Z,92.73
2018-12-06T01:42:13.253Z,92.96
2018-12-06T01:43:13.185Z,92.98
2018-12-06T01:44:13.277Z,92.95
2018-12-06T01:45:13.438Z,93.11
2018-12-06T01:46:13.179Z,92.89
2018-12-06T01:47:13.180Z,92.98
2018-12-06T01:48:13.156Z,93.06
2018-12-06T01:49:13.337Z,92.92
2018-12-06T01:50:13.119Z,92.68
2018-12-06T01:51:13.171Z,92.76
2018-12-06T01:52:13.287Z,92.77
2018-12-06T01:53:13.151Z,92.63
2018-12-06T01:54:13.247Z,93.07
2018-12-06T01:55:13.246Z,92.92
2018-12-06T01:56:13.182Z,92.92
2018-12-06T01:57:13.140Z,93.09
2018-12-06T01:58:13.155Z,93.32
2018-12-06T01:59:13.132Z,93.53
2018-12-06T02:00:13.417Z,93.41
2018-12-06T02:01:13.152Z,93.35
2018-12-06T02:02:13.197Z,93.25
2018-12-06T02:03:13.309Z,93.48
2018-12-06T02:04:13.231Z,93.46
2018-12-06T02:05:13.146Z,93.31
2018-12-06T02:06:13.191Z,93.2
2018-12-06T02:07:13.281Z,93.5
2018-12-06T02:08:13.069Z,93.51
2018-12-06T02:09:13.216Z,93.57
2018-12-06T02:10:13.187Z,93.49
2018-12-06T02:11:13.117Z,93.51
2018-12-06T02:12:13.086Z,93.4
2018-12-06T02:13:13.110Z,93.58
2018-12-06T02:14:13.094Z,93.42
2018-12-06T02:15:13.088Z,93.53
2018-12-06T02:16:13.093Z,93.34
2018-12-06T02:17:13.138Z,93.26
2018-12-06T02:18:13.099Z,93.32
2018-12-06T02:19:13.148Z,93.38
2018-12-06T02:20:13.079Z,93.33
2018-12-06T02:21:13.158Z,93.03
2018-12-06T02:22:13.089Z,93.63
2018-12-06T02:23:13.070Z,93.21
2018-12-06T02:24:13.128Z,92.99
2018-12-06T02:25:13.084Z,93.04
2018-12-06T02:26:13.129Z,92.9
2018-12-06T02:27:13.060Z,93.18
2018-12-06T02:28:13.234Z,93
2018-12-06T02:29:13.076Z,92.9
2018-12-06T02:30:13.077Z,93.01
2018-12-06T02:31:13.112Z,92.94
2018-12-06T02:32:13.177Z,93.13
2018-12-06T02:33:13.106Z,93.42
2018-12-06T02:34:13.511Z,93.27
2018-12-06T02:35:13.429Z,93.38
2018-12-06T02:36:13.252Z,93.35
2018-12-06T02:37:13.170Z,93.41
2018-12-06T02:38:13.564Z,93.31
2018-12-06T02:39:13.230Z,93.29
2018-12-06T02:40:13.070Z,93.34
2018-12-06T02:41:13.293Z,93.42
2018-12-06T02:42:13.109Z,93.61
2018-12-06T02:43:13.094Z,93.52
2018-12-06T02:44:13.140Z,93.55
2018-12-06T02:45:13.249Z,93.79
2018-12-06T02:46:13.208Z,93.6
2018-12-06T02:47:13.042Z,93.59
2018-12-06T02:48:13.147Z,93.59
2018-12-06T02:49:13.143Z,93.83
2018-12-06T02:50:13.037Z,93.64
2018-12-06T02:51:13.117Z,93.52
2018-12-06T02:52:13.108Z,93.6
2018-12-06T02:53:13.183Z,93.6
2018-12-06T02:54:13.126Z,93.68
2018-12-06T02:55:13.178Z,93.77
2018-12-06T02:56:13.104Z,93.89
2018-12-06T02:57:13.043Z,93.56
2018-12-06T02:58:13.020Z,93.72
2018-12-06T02:59:13.141Z,93.54
2018-12-06T03:00:13.211Z,93.78
2018-12-06T03:01:13.214Z,93.76
2018-12-06T03:02:13.216Z,93.79
2018-12-06T03:03:13.394Z,93.56
2018-12-06T03:04:13.177Z,93.54
2018-12-06T03:05:13.024Z,93.83
2018-12-06T03:06:13.044Z,94.21
2018-12-06T03:07:13.167Z,94.04
2018-12-06T03:08:13.154Z,94.03
2018-12-06T03:09:13.230Z,94.13
2018-12-06T03:10:13.071Z,94.36
2018-12-06T03:11:13.254Z,94.26
2018-12-06T03:12:13.013Z,94.13
2018-12-06T03:13:13.099Z,94.36
2018-12-06T03:14:13.146Z,94.56
2018-12-06T03:15:13.154Z,94.44
2018-12-06T03:16:13.218Z,94.26
2018-12-06T03:17:13.091Z,94.3
2018-12-06T03:18:13.084Z,94.49
2018-12-06T03:19:13.031Z,94.44
2018-12-06T03:20:13.188Z,94.57
2018-12-06T03:21:13.083Z,94.64
2018-12-06T03:22:13.161Z,94.7
2018-12-06T03:23:13.096Z,94.89
2018-12-06T03:24:13.032Z,94.35
2018-12-06T03:25:13.076Z,94.57
2018-12-06T03:26:13.458Z,94.54
2018-12-06T03:27:13.314Z,94.6
2018-12-06T03:28:13.198Z,94.66
2018-12-06T03:29:12.998Z,94.45
2018-12-06T03:30:13.047Z,94.37
2018-12-06T03:31:13.248Z,94.7
2018-12-06T03:32:13.127Z,94.62
2018-12-06T03:33:13.083Z,94.71
2018-12-06T03:34:13.271Z,94.63
2018-12-06T03:35:13.294Z,94.55
2018-12-06T03:36:13.107Z,94.65
2018-12-06T03:37:13.028Z,94.61
2018-12-06T03:38:13.016Z,94.73
2018-12-06T03:39:13.172Z,94.74
2018-12-06T03:40:12.983Z,94.72
2018-12-06T03:41:13.127Z,94.78
2018-12-06T03:42:13.047Z,95.06
2018-12-06T03:43:13.325Z,94.67
2018-12-06T03:44:13.096Z,94.81
2018-12-06T03:45:13.045Z,94.73
2018-12-06T03:46:13.019Z,94.72
2018-12-06T03:47:13.201Z,94.49
2018-12-06T03:48:13.813Z,94.23
2018-12-06T03:49:12.982Z,94.25
2018-12-06T03:50:13.144Z,94.55
2018-12-06T03:51:13.095Z,94.94
2018-12-06T03:52:13.099Z,94.93
2018-12-06T03:53:13.006Z,95.11
2018-12-06T03:54:13.017Z,94.86
2018-12-06T03:55:12.974Z,95.1
2018-12-06T03:56:13.016Z,94.98
2018-12-06T03:57:13.019Z,95.12
2018-12-06T03:58:13.001Z,94.93
2018-12-06T03:59:12.970Z,94.97
2018-12-06T04:00:13.014Z,94.97
2018-12-06T04:01:13.022Z,94.95
2018-12-06T04:02:12.969Z,94.7
2018-12-06T04:03:12.970Z,94.99
2018-12-06T04:04:13.003Z,95.04
2018-12-06T04:05:13.102Z,94.9
2018-12-06T04:06:12.934Z,94.83
2018-12-06T04:07:12.956Z,94.91
2018-12-06T04:08:12.975Z,94.9
2018-12-06T04:09:13.309Z,94.76
2018-12-06T04:10:12.981Z,94.72
2018-12-06T04:11:12.994Z,94.82
2018-12-06T04:12:12.962Z,94.87
2018-12-06T04:13:13.492Z,94.8
2018-12-06T04:14:13.150Z,94.82
2018-12-06T04:15:13.048Z,94.73
2018-12-06T04:16:13.329Z,94.77
2018-12-06T04:17:13.010Z,94.75
2018-12-06T04:18:13.063Z,94.74
2018-12-06T04:19:13.303Z,94.66
2018-12-06T04:20:13.184Z,94.68
2018-12-06T04:21:13.110Z,94.69
2018-12-06T04:22:13.010Z,95
2018-12-06T04:23:13.183Z,94.82
2018-12-06T04:24:13.768Z,94.86
2018-12-06T04:25:13.009Z,94.99
2018-12-06T04:26:13.329Z,94.89
2018-12-06T04:27:13.033Z,95.14
2018-12-06T04:28:13.048Z,94.87
2018-12-06T04:29:13.122Z,95.05
2018-12-06T04:30:13.179Z,94.96
2018-12-06T04:31:12.919Z,95.05
2018-12-06T04:32:13.005Z,94.83
2018-12-06T04:33:13.525Z,94.95
2018-12-06T04:34:13.189Z,94.81
2018-12-06T04:35:13.087Z,95.06
2018-12-06T04:36:13.067Z,95.19
2018-12-06T04:37:13.071Z,95.12
2018-12-06T04:38:13.489Z,95.2
2018-12-06T04:39:13.198Z,95.36
2018-12-06T04:40:13.635Z,95.19
2018-12-06T04:41:13.268Z,95.3
2018-12-06T04:42:13.122Z,95.18
2018-12-06T04:43:13.250Z,95.12
2018-12-06T04:44:12.887Z,95.27
2018-12-06T04:45:12.922Z,95.11
2018-12-06T04:46:12.978Z,95.08
2018-12-06T04:47:14.300Z,95.29
2018-12-06T04:48:21.607Z,95.19
2018-12-06T04:49:12.920Z,95.24
2018-12-06T04:50:13.040Z,95.1
2018-12-06T04:51:13.127Z,95.01
2018-12-06T04:52:13.131Z,95.35
2018-12-06T04:53:12.986Z,95.17
2018-12-06T04:54:12.987Z,95.09
2018-12-06T04:55:12.921Z,95.03
2018-12-06T04:56:12.923Z,95.36
2018-12-06T04:57:13.046Z,95.2
2018-12-06T04:58:13.118Z,95.55
2018-12-06T04:59:12.990Z,95.6
2018-12-06T05:00:13.171Z,95.26
2018-12-06T05:01:12.939Z,95.67
2018-12-06T05:02:12.964Z,95.3
2018-12-06T05:03:12.992Z,95.51
2018-12-06T05:04:13.025Z,95.49
2018-12-06T05:05:13.087Z,95.18
2018-12-06T05:06:12.906Z,95.37
2018-12-06T05:07:12.872Z,95.3
2018-12-06T05:08:12.921Z,95.58
2018-12-06T05:09:12.994Z,95.17
2018-12-06T05:10:12.879Z,95.1
2018-12-06T05:11:13.016Z,95.29
2018-12-06T05:12:13.694Z,95.25
2018-12-06T05:13:12.967Z,95
2018-12-06T05:14:12.926Z,95.03
2018-12-06T05:15:12.902Z,95.21
2018-12-06T05:16:13.086Z,95.23
2018-12-06T05:17:12.942Z,95.89
2018-12-06T05:18:12.872Z,95.42
2018-12-06T05:19:12.940Z,95.08
2018-12-06T05:20:13.198Z,95.09
2018-12-06T05:21:12.975Z,95.01
2018-12-06T05:22:12.926Z,95.5
2018-12-06T05:23:14.098Z,95.42
2018-12-06T05:24:13.046Z,95.12
2018-12-06T05:25:12.965Z,95.53
2018-12-06T05:26:12.882Z,96.02
2018-12-06T05:27:12.979Z,95.53
2018-12-06T05:28:13.022Z,95.28
2018-12-06T05:29:12.927Z,95.27
2018-12-06T05:30:12.892Z,95.77
2018-12-06T05:31:13.152Z,95.33
2018-12-06T05:32:12.927Z,95.36
2018-12-06T05:33:12.961Z,95.27
2018-12-06T05:34:12.945Z,95.51
2018-12-06T05:35:12.841Z,95.43
2018-12-06T05:36:12.880Z,95.41
2018-12-06T05:37:12.834Z,95.51
2018-12-06T05:38:12.892Z,95.37
2018-12-06T05:39:12.924Z,95.32
2018-12-06T05:40:12.956Z,95.48
2018-12-06T05:41:13.249Z,95.6
2018-12-06T05:42:12.926Z,95.66
2018-12-06T05:43:12.977Z,95.63
2018-12-06T05:44:12.863Z,95.6
2018-12-06T05:45:13.077Z,95.7
2018-12-06T05:46:12.952Z,95.56
2018-12-06T05:47:12.854Z,95.89
2018-12-06T05:48:12.938Z,95.72
2018-12-06T05:49:12.969Z,95.9
2018-12-06T05:50:12.934Z,95.83
2018-12-06T05:51:14.335Z,95.82
2018-12-06T05:52:12.837Z,95.8
2018-12-06T05:53:12.949Z,95.98
2018-12-06T05:54:12.912Z,95.83
2018-12-06T05:55:13.633Z,95.78
2018-12-06T05:56:12.894Z,95.98
2018-12-06T05:57:12.884Z,95.83
2018-12-06T05:58:12.910Z,95.87
2018-12-06T05:59:12.843Z,96.03
2018-12-06T06:00:12.920Z,96.3
2018-12-06T06:01:12.854Z,96.28
2018-12-06T06:02:13.038Z,95.9
2018-12-06T06:03:13.075Z,96.05
2018-12-06T06:04:12.874Z,95.89
2018-12-06T06:05:12.935Z,95.99
2018-12-06T06:06:13.220Z,96.12
2018-12-06T06:07:13.650Z,96.19
2018-12-06T06:08:12.803Z,96.11
2018-12-06T06:09:13.447Z,96.37
2018-12-06T06:10:13.023Z,96.36
2018-12-06T06:11:12.978Z,96.38
2018-12-06T06:12:13.184Z,96.08
2018-12-06T06:13:12.838Z,96.17
2018-12-06T06:14:12.946Z,96.12
2018-12-06T06:15:12.899Z,96.61
2018-12-06T06:16:12.996Z,96.48
2018-12-06T06:17:12.973Z,96.56
2018-12-06T06:18:12.906Z,96.42
2018-12-06T06:19:12.779Z,96.45
2018-12-06T06:20:12.905Z,96.44
2018-12-06T06:21:13.097Z,96.6
2018-12-06T06:22:12.934Z,96.37
2018-12-06T06:23:13.049Z,96.28
2018-12-06T06:24:12.811Z,96.31
2018-12-06T06:25:12.920Z,96.38
2018-12-06T06:26:12.995Z,96.24
2018-12-06T06:27:12.922Z,96.41
2018-12-06T06:28:13.048Z,96.31
2018-12-06T06:29:13.065Z,96.33
2018-12-06T06:30:12.986Z,96.44
2018-12-06T06:31:12.920Z,96.42
2018-12-06T06:32:12.765Z,96.34
2018-12-06T06:33:12.907Z,96.18
2018-12-06T06:34:12.919Z,96.39
2018-12-06T06:35:13.008Z,96.82
2018-12-06T06:36:13.166Z,96.66
2018-12-06T06:37:12.957Z,96.36
2018-12-06T06:38:13.010Z,96.59
2018-12-06T06:39:12.960Z,96.43
2018-12-06T06:40:13.016Z,96.53
2018-12-06T06:41:12.862Z,96.59
2018-12-06T06:42:12.963Z,96.75
2018-12-06T06:43:12.983Z,96.83
2018-12-06T06:44:12.965Z,96.74
2018-12-06T06:45:12.792Z,96.86
2018-12-06T06:46:13.000Z,96.7
2018-12-06T06:47:13.259Z,96.53
2018-12-06T06:48:12.968Z,96.98
2018-12-06T06:49:13.902Z,96.98
2018-12-06T06:50:12.944Z,96.83
2018-12-06T06:51:12.922Z,96.91
2018-12-06T06:52:12.975Z,96.87
2018-12-06T06:53:12.751Z,96.84
2018-12-06T06:54:13.048Z,96.65
2018-12-06T06:55:12.819Z,96.96
2018-12-06T06:56:12.938Z,96.88
2018-12-06T06:57:13.110Z,96.76
2018-12-06T06:58:12.997Z,97.25
2018-12-06T06:59:12.742Z,97.21
2018-12-06T07:00:12.749Z,97.3
2018-12-06T07:01:13.401Z,97.18
2018-12-06T07:02:12.740Z,97.25
2018-12-06T07:03:12.985Z,97.33
2018-12-06T07:04:12.832Z,97.21
2018-12-06T07:05:12.933Z,97.36
2018-12-06T07:06:13.242Z,97.29
2018-12-06T07:07:12.803Z,97.49
2018-12-06T07:08:12.737Z,97.33
2018-12-06T07:09:13.104Z,97.25
2018-12-06T07:10:13.023Z,97.22
2018-12-06T07:11:12.989Z,97.1
2018-12-06T07:12:12.875Z,97.01
2018-12-06T07:13:12.986Z,96.85
2018-12-06T07:14:12.721Z,96.78
2018-12-06T07:15:12.743Z,96.83
2018-12-06T07:16:12.884Z,96.61
2018-12-06T07:17:12.830Z,96.68
2018-12-06T07:18:12.764Z,96.52
2018-12-06T07:19:12.763Z,96.5
2018-12-06T07:20:12.761Z,96.3
2018-12-06T07:21:12.788Z,96.28
2018-12-06T07:22:12.721Z,96.11
2018-12-06T07:23:12.944Z,96
2018-12-06T07:24:13.052Z,95.95
2018-12-06T07:25:12.918Z,95.99
2018-12-06T07:26:12.758Z,95.98
2018-12-06T07:27:12.705Z,96.03
2018-12-06T07:28:12.912Z,96.12
2018-12-06T07:29:12.693Z,96.27
2018-12-06T07:30:12.830Z,96.22
2018-12-06T07:31:12.726Z,96.36
2018-12-06T07:32:12.705Z,96.21
2018-12-06T07:33:13.038Z,96.31
2018-12-06T07:34:13.099Z,96.41
2018-12-06T07:35:12.694Z,96.57
2018-12-06T07:36:12.697Z,96.44
2018-12-06T07:37:12.757Z,96.54
2018-12-06T07:38:12.973Z,96.75
2018-12-06T07:39:12.767Z,96.62
2018-12-06T07:40:12.752Z,96.49
2018-12-06T07:41:13.071Z,96.5
2018-12-06T07:42:12.869Z,96.33
2018-12-06T07:43:13.019Z,96.23
2018-12-06T07:44:12.677Z,96.59
2018-12-06T07:45:12.994Z,96.33
2018-12-06T07:46:12.898Z,96.89
2018-12-06T07:47:12.699Z,97
2018-12-06T07:48:13.539Z,96.85
2018-12-06T07:49:12.939Z,96.96
2018-12-06T07:50:12.901Z,97.68
2018-12-06T07:51:12.724Z,97.08
2018-12-06T07:52:12.921Z,97.38
2018-12-06T07:53:12.764Z,97.66
2018-12-06T07:54:13.992Z,97.34
2018-12-06T07:55:12.940Z,97.24
2018-12-06T07:56:12.897Z,97
2018-12-06T07:57:12.887Z,97.68
2018-12-06T07:58:12.841Z,97.27
2018-12-06T07:59:12.865Z,97.31
2018-12-06T08:00:13.156Z,97.18
2018-12-06T08:01:12.959Z,97.14
2018-12-06T08:02:12.890Z,97.09
2018-12-06T08:03:12.870Z,97.04
2018-12-06T08:04:12.749Z,96.79
2018-12-06T08:05:12.683Z,97.02
2018-12-06T08:06:12.838Z,96.82
2018-12-06T08:07:12.905Z,97.02
2018-12-06T08:08:13.493Z,97.15
2018-12-06T08:09:13.274Z,97.07
2018-12-06T08:10:13.901Z,97.12
2018-12-06T08:11:12.670Z,96.93
2018-12-06T08:12:12.912Z,96.97
2018-12-06T08:13:12.944Z,97.28
2018-12-06T08:14:12.821Z,97.15
2018-12-06T08:15:12.671Z,97.04
2018-12-06T08:16:12.854Z,96.98
2018-12-06T08:17:13.027Z,97.1
2018-12-06T08:18:13.085Z,96.92
2018-12-06T08:19:13.933Z,96.91
2018-12-06T08:20:12.634Z,97.05
2018-12-06T08:21:12.743Z,97.25
2018-12-06T08:22:12.690Z,97
2018-12-06T08:23:12.763Z,97.34
2018-12-06T08:24:12.873Z,97.21
2018-12-06T08:25:12.869Z,97.21
2018-12-06T08:26:12.717Z,97.09
2018-12-06T08:27:12.655Z,97.42
2018-12-06T08:28:12.840Z,97.34
2018-12-06T08:29:12.811Z,97.27
2018-12-06T08:30:12.813Z,97.43
2018-12-06T08:31:12.651Z,97.7
2018-12-06T08:32:12.689Z,97.9
2018-12-06T08:33:12.977Z,97.6
2018-12-06T08:34:12.745Z,97.33
2018-12-06T08:35:12.922Z,97.25
2018-12-06T08:36:12.680Z,97.14
2018-12-06T08:37:12.698Z,97.34
2018-12-06T08:38:12.740Z,97.37
2018-12-06T08:39:12.977Z,97.4
2018-12-06T08:40:12.708Z,97.45
2018-12-06T08:41:12.727Z,97.41
2018-12-06T08:42:12.733Z,97.59
2018-12-06T08:43:12.729Z,97.58
2018-12-06T08:44:13.118Z,97.56
2018-12-06T08:45:12.666Z,97.79
2018-12-06T08:46:12.902Z,97.92
2018-12-06T08:47:12.887Z,97.64
2018-12-06T08:48:12.771Z,97.77
2018-12-06T08:49:12.631Z,97.78
2018-12-06T08:50:12.638Z,97.81
2018-12-06T08:51:12.638Z,98.28
2018-12-06T08:52:12.728Z,98.33
2018-12-06T08:53:12.601Z,98.53
2018-12-06T08:54:12.750Z,98.62
2018-12-06T08:55:12.611Z,98.28
2018-12-06T08:56:12.611Z,98.26
2018-12-06T08:57:12.632Z,98.11
2018-12-06T08:58:12.645Z,98.51
2018-12-06T08:59:15.761Z,98.05
2018-12-06T09:00:12.681Z,98.13
2018-12-06T09:01:12.586Z,98.28
2018-12-06T09:02:12.842Z,98.67
2018-12-06T09:03:12.573Z,98.32
2018-12-06T09:04:12.577Z,98.46
2018-12-06T09:05:12.581Z,98.15
2018-12-06T09:06:12.682Z,98.29
2018-12-06T09:07:12.574Z,98.24
2018-12-06T09:08:12.598Z,98.24
2018-12-06T09:09:12.627Z,98.3
2018-12-06T09:10:12.647Z,98.33
2018-12-06T09:11:12.858Z,98.33
2018-12-06T09:12:12.600Z,98.18
2018-12-06T09:13:12.599Z,98.18
2018-12-06T09:14:12.565Z,98.23
2018-12-06T09:15:12.617Z,98.26
2018-12-06T09:16:12.689Z,98.28
2018-12-06T09:17:12.587Z,98.2
2018-12-06T09:18:13.078Z,98.47
2018-12-06T09:19:12.682Z,98.27
2018-12-06T09:20:12.756Z,98.12
2018-12-06T09:21:12.909Z,98.43
2018-12-06T09:22:12.671Z,98.49
2018-12-06T09:23:12.572Z,98.58
2018-12-06T09:24:12.897Z,98.45
2018-12-06T09:25:12.652Z,98.58
2018-12-06T09:26:12.762Z,98.6
2018-12-06T09:27:12.597Z,98.61
2018-12-06T09:28:12.764Z,98.68
2018-12-06T09:29:12.924Z,98.46
2018-12-06T09:30:12.697Z,98.57
2018-12-06T09:31:12.655Z,98.83
2018-12-06T09:32:12.554Z,98.85
2018-12-06T09:33:12.617Z,99.04
2018-12-06T09:34:12.560Z,98.72
2018-12-06T09:35:12.655Z,98.51
2018-12-06T09:36:12.618Z,98.58
2018-12-06T09:37:12.824Z,98.89
2018-12-06T09:38:12.552Z,98.87
2018-12-06T09:39:12.560Z,98.8
2018-12-06T09:40:12.749Z,99.03
2018-12-06T09:41:12.584Z,98.74
2018-12-06T09:42:12.687Z,98.98
2018-12-06T09:43:12.846Z,98.7
2018-12-06T09:44:12.587Z,98.65
2018-12-06T09:45:12.926Z,98.57
2018-12-06T09:46:12.673Z,98.68
2018-12-06T09:47:12.505Z,98.69
2018-12-06T09:48:12.651Z,98.61
2018-12-06T09:49:13.247Z,98.86
2018-12-06T09:50:12.691Z,98.76
2018-12-06T09:51:12.899Z,99.02
2018-12-06T09:52:13.030Z,98.9
2018-12-06T09:53:12.544Z,99.13
2018-12-06T09:54:12.734Z,98.91
2018-12-06T09:55:12.518Z,98.91
2018-12-06T09:56:12.636Z,99.43
2018-12-06T09:57:12.603Z,98.88
2018-12-06T09:58:12.517Z,98.84
2018-12-06T09:59:12.713Z,99.05
2018-12-06T10:00:12.863Z,99.12
2018-12-06T10:01:12.959Z,98.8
2018-12-06T10:02:12.570Z,98.88
2018-12-06T10:03:12.568Z,98.86
2018-12-06T10:04:13.038Z,98.77
2018-12-06T10:05:12.616Z,99.11
2018-12-06T10:06:12.938Z,98.87
2018-12-06T10:07:12.911Z,98.92
2018-12-06T10:08:12.952Z,99.47
2018-12-06T10:09:12.677Z,99.13
2018-12-06T10:10:13.553Z,98.9
2018-12-06T10:11:12.974Z,98.75
2018-12-06T10:12:12.685Z,99.27
2018-12-06T10:13:12.546Z,99.27
2018-12-06T10:14:12.664Z,99.37
2018-12-06T10:15:12.566Z,99.18
2018-12-06T10:16:12.601Z,99.33
2018-12-06T10:17:12.617Z,99.29
2018-12-06T10:18:13.230Z,99.46
2018-12-06T10:19:13.315Z,99.41
2018-12-06T10:20:12.563Z,98.99
2018-12-06T10:21:12.710Z,99.31
2018-12-06T10:22:12.671Z,99.04
2018-12-06T10:23:12.453Z,98.99
2018-12-06T10:24:12.491Z,99.07
2018-12-06T10:25:12.634Z,99.09
2018-12-06T10:26:12.639Z,98.89
2018-12-06T10:27:12.687Z,98.78
2018-12-06T10:28:12.622Z,98.83
2018-12-06T10:29:12.488Z,99.2
2018-12-06T10:30:12.537Z,98.75
2018-12-06T10:31:12.577Z,98.98
2018-12-06T10:32:12.498Z,98.79
2018-12-06T10:33:12.537Z,98.51
2018-12-06T10:34:12.669Z,98.69
2018-12-06T10:35:12.528Z,98.76
2018-12-06T10:36:12.486Z,98.92
2018-12-06T10:37:12.493Z,98.72
2018-12-06T10:38:12.520Z,98.8
2018-12-06T10:39:12.487Z,98.69
2018-12-06T10:40:12.836Z,99.2
2018-12-06T10:41:12.516Z,99.08
2018-12-06T10:42:12.483Z,99.06
2018-12-06T10:43:12.485Z,99.01
2018-12-06T10:44:12.529Z,98.97
2018-12-06T10:45:12.487Z,99.14
2018-12-06T10:46:12.520Z,99.23
2018-12-06T10:47:12.481Z,99.16
2018-12-06T10:48:12.589Z,99.39
2018-12-06T10:49:12.484Z,99.21
2018-12-06T10:50:12.480Z,99.07
2018-12-06T10:51:12.486Z,99.16
2018-12-06T10:52:12.546Z,98.98
2018-12-06T10:53:12.874Z,98.99
2018-12-06T10:54:12.504Z,98.79
2018-12-06T10:55:12.737Z,98.95
2018-12-06T10:56:12.542Z,98.91
2018-12-06T10:57:12.550Z,98.93
2018-12-06T10:58:12.515Z,98.97
2018-12-06T10:59:12.484Z,98.8
2018-12-06T11:00:12.607Z,98.69
2018-12-06T11:01:12.468Z,98.6
2018-12-06T11:02:12.594Z,98.71
2018-12-06T11:03:12.607Z,98.75
2018-12-06T11:04:12.715Z,98.67
2018-12-06T11:05:12.577Z,98.89
2018-12-06T11:06:12.439Z,98.75
2018-12-06T11:07:12.578Z,98.79
2018-12-06T11:08:12.456Z,98.64
2018-12-06T11:09:12.735Z,98.86
2018-12-06T11:10:12.636Z,98.62
2018-12-06T11:11:12.560Z,98.71
2018-12-06T11:12:12.491Z,98.67
2018-12-06T11:13:12.390Z,98.66
2018-12-06T11:14:12.880Z,98.6
2018-12-06T11:15:12.636Z,98.73
2018-12-06T11:16:12.441Z,98.81
2018-12-06T11:17:12.847Z,98.72
2018-12-06T11:18:12.511Z,98.69
2018-12-06T11:19:12.898Z,99.1
2018-12-06T11:20:12.754Z,98.88
2018-12-06T11:21:12.685Z,98.91
2018-12-06T11:22:12.698Z,98.67
2018-12-06T11:23:12.551Z,98.75
2018-12-06T11:24:12.461Z,98.7
2018-12-06T11:25:12.952Z,98.96
2018-12-06T11:26:12.468Z,98.62
2018-12-06T11:27:12.922Z,98.54
2018-12-06T11:28:12.600Z,98.18
2018-12-06T11:29:12.596Z,98.27
2018-12-06T11:30:12.582Z,98.26
2018-12-06T11:31:12.441Z,98.44
2018-12-06T11:32:12.705Z,98.38
2018-12-06T11:33:12.455Z,98.66
2018-12-06T11:34:12.833Z,98.59
2018-12-06T11:35:12.445Z,98.37
2018-12-06T11:36:12.608Z,98.57
2018-12-06T11:37:12.664Z,98.66
2018-12-06T11:38:12.583Z,98.47
2018-12-06T11:39:12.473Z,98.34
2018-12-06T11:40:12.410Z,98.32
2018-12-06T11:41:12.492Z,98.39
2018-12-06T11:42:12.547Z,98.42
2018-12-06T11:43:12.429Z,98.57
2018-12-06T11:44:12.665Z,98.38
2018-12-06T11:45:12.420Z,98.51
2018-12-06T11:46:12.432Z,98.6
2018-12-06T11:47:13.026Z,98.45
2018-12-06T11:48:12.527Z,98.32
2018-12-06T11:49:12.575Z,98.45
2018-12-06T11:50:12.453Z,98.36
2018-12-06T11:51:12.450Z,98.47
2018-12-06T11:52:12.730Z,98.29
2018-12-06T11:53:12.397Z,98.1
2018-12-06T11:54:12.427Z,98.18
2018-12-06T11:55:12.859Z,98.14
2018-12-06T11:56:12.471Z,98.21
2018-12-06T11:57:12.590Z,98.12
2018-12-06T11:58:12.430Z,98.35
2018-12-06T11:59:12.505Z,98.29
2018-12-06T12:00:12.528Z,98.51
2018-12-06T12:01:13.380Z,98.43
2018-12-06T12:02:12.405Z,98.51
2018-12-06T12:03:12.531Z,98.8
2018-12-06T12:04:12.649Z,98.56
2018-12-06T12:05:12.585Z,98.26
2018-12-06T12:06:13.241Z,98.34
2018-12-06T12:07:12.429Z,98.46
2018-12-06T12:08:12.626Z,98.4
2018-12-06T12:09:12.484Z,98.54
2018-12-06T12:10:12.566Z,98.15
2018-12-06T12:11:12.403Z,97.98
2018-12-06T12:12:12.849Z,97.97
2018-12-06T12:13:12.599Z,97.79
2018-12-06T12:14:12.387Z,97.57
2018-12-06T12:15:12.388Z,97.41
2018-12-06T12:16:12.379Z,97.62
2018-12-06T12:17:12.402Z,97.4
2018-12-06T12:18:12.423Z,97.5
2018-12-06T12:19:12.455Z,97.76
2018-12-06T12:20:12.343Z,97.73
2018-12-06T12:21:12.386Z,97.45
2018-12-06T12:22:12.409Z,97.47
2018-12-06T12:23:12.528Z,97.43
2018-12-06T12:24:12.352Z,97.36
2018-12-06T12:25:12.352Z,97.64
2018-12-06T12:26:12.445Z,97.62
2018-12-06T12:27:12.395Z,97.33
2018-12-06T12:28:12.359Z,97.53
2018-12-06T12:29:12.344Z,97.17
2018-12-06T12:30:12.359Z,97.09
2018-12-06T12:31:12.375Z,97.46
2018-12-06T12:32:12.357Z,97.48
2018-12-06T12:33:12.392Z,97.33
2018-12-06T12:34:12.389Z,97.35
2018-12-06T12:35:12.350Z,97.46
2018-12-06T12:36:12.469Z,97.12
2018-12-06T12:37:12.393Z,97.08
2018-12-06T12:38:12.365Z,96.96
2018-12-06T12:39:12.381Z,96.98
2018-12-06T12:40:12.375Z,96.95
2018-12-06T12:41:12.848Z,97.11
2018-12-06T12:42:12.647Z,97.17
2018-12-06T12:43:12.720Z,97.28
2018-12-06T12:44:12.813Z,97.55
2018-12-06T12:45:12.338Z,97.27
2018-12-06T12:46:12.582Z,97.05
2018-12-06T12:47:12.393Z,96.79
2018-12-06T12:48:12.494Z,96.8
2018-12-06T12:49:12.344Z,96.6
2018-12-06T12:50:13.151Z,96.2
2018-12-06T12:51:12.435Z,96.28
2018-12-06T12:52:12.479Z,95.91
2018-12-06T12:53:12.552Z,95.75
2018-12-06T12:54:12.663Z,95.89
2018-12-06T12:55:12.336Z,95.25
2018-12-06T12:56:12.523Z,95.12